KFBG

Simmons AAF Airport

Fort Bragg, North Carolina, USA
METAR KFBG 280056Z AUTO 18004KT 10SM BKN180 26/20 A2999 RMK AO2 SLP156 T02600196 $
Observed Flight Rules
May-28 @ 00:56 UTC (27 minutes ago) Visual Flight Rules
Wind Visibility Clouds
180° at 4 knots 10 miles
  • Broken at 18,000' AGL
Temperatures Readings
Current 26°C / 79°F
Dewpoint 20°C / 68°F
Humidity 70%
Altimeter 29.99" Hg
Pressure 1015.6 hPa
Elevation 74
METAR KFBG 280056Z AUTO 18004KT 10SM BKN180 26/20 A2999 RMK AO2 SLP156 T02600196 $
Observed Flight Rules
May-28 @ 00:56 UTC
(27 minutes ago)
VFR
Wind Visibility
180° at 4 knots 10 miles
Clouds
  • Broken at 18,000' AGL
Temperature Dewpoint
26°C / 79°F 20°C / 68°F
Humidity Altimeter Pressure
70% 29.99" Hg 1015.6 hPa